Aviation Digital Data Service (ADDS)

Output produced by METARs form (2143 UTC 29 July 2016)
found at http://aviationweather.gov/adds/metars/
 
KJHW 292106Z 2921/3018 04006KT P6SM VCSH BKN050 
     FM300000 08006KT P6SM BKN070 
     FM301200 10006KT P6SM VCSH OVC035 AMD LTD TO CLD VIS AND WIND